Time;durP1;ratioP1;P1;durP2;ratioP2;P2;SDS_P1;SDS_P2;PMS_P1;PMS_P2;Temp;Humidity;BMP_temperature;BMP_pressure;BME280_temperature;BME280_humidity;BME280_pressure;Samples;Min_cycle;Max_cycle;Signal;HPM_P1;HPM_P2
2022/08/13 00:01:24;;;;;;;;;;;24.70;69.30;;;;;;5015858;28;19905;-80
2022/08/13 00:03:52;;;;;;;;;;;24.70;69.70;;;;;;5015882;28;20285;-77
2022/08/13 00:09:06;;;;;;;;;;;24.60;69.70;;;;;;5015783;28;20016;-80
2022/08/13 00:14:16;;;;;;;;;;;24.50;70.10;;;;;;5015735;28;19956;-80
2022/08/13 00:16:42;;;;;;;;;;;24.40;70.10;;;;;;5015496;28;20276;-77
2022/08/13 00:19:07;;;;;;;;;;;24.40;70.30;;;;;;5016112;28;20431;-77
2022/08/13 00:21:33;;;;;;;;;;;24.40;70.60;;;;;;5015305;28;20028;-77
2022/08/13 00:23:58;;;;;;;;;;;24.30;70.70;;;;;;5015098;28;19905;-77
2022/08/13 00:26:25;;;;;;;;;;;24.20;70.90;;;;;;5015381;28;20020;-79
2022/08/13 00:28:52;;;;;;;;;;;24.20;71.00;;;;;;5011771;28;19906;-80
2022/08/13 00:31:18;;;;;;;;;;;24.10;71.00;;;;;;5014879;28;19956;-76
2022/08/13 00:33:43;;;;;;;;;;;24.10;70.90;;;;;;5015339;28;19999;-76
2022/08/13 00:36:09;;;;;;;;;;;24.10;70.80;;;;;;5017484;28;19905;-80
2022/08/13 00:38:35;;;;;;;;;;;24.10;70.80;;;;;;5015138;28;19916;-79
2022/08/13 00:41:00;;;;;;;;;;;24.10;70.90;;;;;;5012791;28;19921;-80
2022/08/13 00:43:27;;;;;;;;;;;24.10;71.00;;;;;;5007222;28;19937;-80
2022/08/13 00:45:54;;;;;;;;;;;24.10;71.10;;;;;;5013648;28;20395;-80
2022/08/13 00:51:08;;;;;;;;;;;24.00;71.10;;;;;;5014717;28;19917;-80
2022/08/13 00:53:36;;;;;;;;;;;24.00;71.30;;;;;;5014640;28;19917;-77
2022/08/13 00:56:02;;;;;;;;;;;23.90;71.30;;;;;;5014583;28;20011;-77
2022/08/13 00:58:27;;;;;;;;;;;23.90;71.30;;;;;;5013482;28;20364;-79
2022/08/13 01:00:56;;;;;;;;;;;23.90;71.10;;;;;;5014031;28;20488;-80
2022/08/13 01:03:22;;;;;;;;;;;23.90;71.80;;;;;;5014506;28;20320;-79
2022/08/13 01:05:48;;;;;;;;;;;23.90;71.40;;;;;;5014603;28;19945;-77
2022/08/13 01:08:16;;;;;;;;;;;23.90;70.90;;;;;;5014552;28;19905;-79
2022/08/13 01:10:42;;;;;;;;;;;23.90;72.10;;;;;;5014672;28;19909;-76
2022/08/13 01:13:11;;;;;;;;;;;23.70;72.20;;;;;;5013990;28;19944;-77
2022/08/13 01:15:37;;;;;;;;;;;23.60;71.80;;;;;;5013632;28;20008;-79
2022/08/13 01:18:03;;;;;;;;;;;23.60;72.00;;;;;;5015147;28;19909;-79
2022/08/13 01:20:31;;;;;;;;;;;23.50;72.10;;;;;;5015673;28;19955;-79
2022/08/13 01:22:57;;;;;;;;;;;23.50;72.70;;;;;;5014119;28;19913;-76
2022/08/13 01:25:25;;;;;;;;;;;23.40;73.70;;;;;;5014331;28;19956;-76
2022/08/13 01:27:52;;;;;;;;;;;23.40;75.10;;;;;;5013942;28;20017;-79
2022/08/13 01:30:19;;;;;;;;;;;23.30;76.10;;;;;;5014047;28;20435;-80
2022/08/13 01:32:45;;;;;;;;;;;23.30;77.30;;;;;;5013956;28;19906;-79
2022/08/13 01:35:10;;;;;;;;;;;23.20;79.00;;;;;;5014993;28;19909;-76
2022/08/13 01:37:37;;;;;;;;;;;23.20;80.00;;;;;;5013662;28;19916;-76
2022/08/13 01:40:04;;;;;;;;;;;23.10;81.50;;;;;;5013976;28;19910;-79
2022/08/13 01:42:36;;;;;;;;;;;23.10;83.60;;;;;;5003896;28;19905;-79
2022/08/13 01:45:01;;;;;;;;;;;23.00;85.50;;;;;;5014150;28;19990;-79
2022/08/13 01:50:29;;;;;;;;;;;22.80;91.50;;;;;;5013687;28;19990;-76
2022/08/13 01:53:05;;;;;;;;;;;22.70;94.00;;;;;;5013995;28;19924;-79
2022/08/13 01:55:37;;;;;;;;;;;22.50;95.10;;;;;;5013628;28;20052;-79
2022/08/13 01:58:04;;;;;;;;;;;22.40;96.10;;;;;;5013187;28;19960;-79
2022/08/13 02:00:30;;;;;;;;;;;22.30;97.00;;;;;;5013767;28;20019;-76
2022/08/13 02:02:56;;;;;;;;;;;22.20;98.10;;;;;;5013834;28;20270;-78
2022/08/13 02:05:23;;;;;;;;;;;22.00;99.10;;;;;;5013493;28;19933;-79
2022/08/13 02:07:50;;;;;;;;;;;22.00;99.80;;;;;;5013591;28;19920;-79
2022/08/13 02:10:19;;;;;;;;;;;21.90;99.90;;;;;;5013424;28;19905;-79
2022/08/13 02:12:46;;;;;;;;;;;21.80;99.90;;;;;;5013130;28;19992;-79
2022/08/13 02:15:12;;;;;;;;;;;21.80;99.90;;;;;;5012541;28;20380;-76
2022/08/13 02:17:41;;;;;;;;;;;21.70;99.90;;;;;;5013058;28;19920;-76
2022/08/13 02:20:08;;;;;;;;;;;21.70;99.90;;;;;;5014612;28;19971;-79
2022/08/13 02:22:33;;;;;;;;;;;21.60;99.90;;;;;;5013265;28;19905;-79
2022/08/13 02:25:01;;;;;;;;;;;21.60;99.90;;;;;;5013558;28;19906;-76
2022/08/13 02:27:26;;;;;;;;;;;21.60;99.90;;;;;;5013185;28;19906;-76
2022/08/13 02:29:53;;;;;;;;;;;21.60;99.90;;;;;;5013041;28;19912;-79
2022/08/13 02:32:19;;;;;;;;;;;21.60;99.90;;;;;;5013480;28;19971;-79
2022/08/13 02:34:46;;;;;;;;;;;21.60;99.90;;;;;;5015177;28;20361;-79
2022/08/13 02:37:13;;;;;;;;;;;21.60;99.90;;;;;;5013498;28;20357;-79
2022/08/13 02:39:38;;;;;;;;;;;21.60;99.90;;;;;;5013432;28;19975;-76
2022/08/13 02:42:04;;;;;;;;;;;21.60;99.90;;;;;;5003591;28;20316;-76
2022/08/13 02:44:31;;;;;;;;;;;21.50;99.90;;;;;;5011928;28;20415;-76
2022/08/13 02:46:56;;;;;;;;;;;21.60;99.90;;;;;;5015457;28;20269;-76
2022/08/13 02:49:22;;;;;;;;;;;21.50;99.90;;;;;;5013217;28;19912;-76
2022/08/13 02:51:49;;;;;;;;;;;21.50;99.90;;;;;;5013226;28;19921;-79
2022/08/13 02:54:16;;;;;;;;;;;21.50;99.90;;;;;;5013065;28;19905;-76
2022/08/13 02:56:43;;;;;;;;;;;21.50;99.90;;;;;;5013033;28;19909;-76
2022/08/13 02:59:10;;;;;;;;;;;21.50;99.90;;;;;;5012869;28;19965;-76
2022/08/13 03:01:40;;;;;;;;;;;21.50;99.90;;;;;;5013038;28;20788;-79
2022/08/13 03:04:07;;;;;;;;;;;21.40;99.90;;;;;;5013284;28;19971;-79
2022/08/13 03:06:33;;;;;;;;;;;21.30;99.90;;;;;;5012974;28;20360;-78
2022/08/13 03:09:01;;;;;;;;;;;21.40;99.90;;;;;;5013223;28;19913;-76
2022/08/13 03:11:32;;;;;;;;;;;21.40;99.90;;;;;;5012240;28;19952;-76
2022/08/13 03:14:04;;;;;;;;;;;21.40;99.90;;;;;;5013136;28;19909;-79
2022/08/13 03:16:30;;;;;;;;;;;21.40;99.90;;;;;;5012218;28;19905;-76
2022/08/13 03:18:57;;;;;;;;;;;21.30;99.90;;;;;;5012822;28;20379;-76
2022/08/13 03:21:26;;;;;;;;;;;21.30;99.90;;;;;;5013746;28;19905;-76
2022/08/13 03:23:52;;;;;;;;;;;21.30;99.90;;;;;;5013509;28;19913;-79
2022/08/13 03:26:18;;;;;;;;;;;21.30;99.90;;;;;;5016420;28;20048;-79
2022/08/13 03:28:44;;;;;;;;;;;21.30;99.90;;;;;;5016386;28;19905;-79
2022/08/13 03:31:09;;;;;;;;;;;21.30;99.90;;;;;;5015648;28;19916;-76
2022/08/13 03:33:35;;;;;;;;;;;21.30;99.90;;;;;;5016478;28;19911;-76
2022/08/13 03:36:00;;;;;;;;;;;21.30;99.90;;;;;;5018581;28;20008;-76
2022/08/13 03:38:26;;;;;;;;;;;21.20;99.90;;;;;;5016310;28;19959;-79
2022/08/13 03:41:00;;;;;;;;;;;21.20;99.90;;;;;;5015301;28;19963;-79
2022/08/13 03:43:27;;;;;;;;;;;21.10;99.90;;;;;;5007508;28;19906;-79
2022/08/13 03:45:54;;;;;;;;;;;21.00;99.90;;;;;;5015929;28;19916;-76
2022/08/13 03:48:21;;;;;;;;;;;20.90;99.90;;;;;;5018147;28;19910;-79
2022/08/13 03:50:48;;;;;;;;;;;20.70;99.90;;;;;;5016265;28;19905;-79
2022/08/13 03:53:15;;;;;;;;;;;20.70;99.90;;;;;;5015857;28;19924;-79
2022/08/13 03:55:42;;;;;;;;;;;20.70;99.90;;;;;;5015937;28;19906;-79
2022/08/13 03:58:08;;;;;;;;;;;20.60;99.90;;;;;;5015375;28;20312;-76
2022/08/13 04:00:36;;;;;;;;;;;20.60;99.90;;;;;;5015643;28;19952;-75
2022/08/13 04:03:14;;;;;;;;;;;20.60;99.90;;;;;;5014816;28;19911;-79
2022/08/13 04:05:39;;;;;;;;;;;20.60;99.90;;;;;;5015526;28;19910;-79
2022/08/13 04:08:05;;;;;;;;;;;20.60;99.90;;;;;;5015041;28;19959;-79
2022/08/13 04:10:30;;;;;;;;;;;20.60;99.90;;;;;;5015393;28;20360;-79
2022/08/13 04:12:56;;;;;;;;;;;20.60;99.90;;;;;;5015314;28;19905;-76
2022/08/13 04:15:21;;;;;;;;;;;20.60;99.90;;;;;;5014676;28;19928;-79
2022/08/13 04:17:47;;;;;;;;;;;20.70;99.90;;;;;;5014598;28;20017;-79
2022/08/13 04:20:12;;;;;;;;;;;20.70;99.90;;;;;;5016391;28;19996;-79
2022/08/13 04:22:38;;;;;;;;;;;20.70;99.90;;;;;;5015250;28;19905;-79
2022/08/13 04:25:07;;;;;;;;;;;20.60;99.90;;;;;;5021489;28;19905;-78
2022/08/13 04:27:34;;;;;;;;;;;20.60;99.90;;;;;;5019347;28;20343;-76
2022/08/13 04:30:00;;;;;;;;;;;20.60;99.90;;;;;;5014987;28;20475;-79
2022/08/13 04:32:25;;;;;;;;;;;20.60;99.90;;;;;;5015087;28;19905;-76
2022/08/13 04:34:51;;;;;;;;;;;20.60;99.90;;;;;;5017079;28;19962;-78
2022/08/13 04:37:17;;;;;;;;;;;20.60;99.90;;;;;;5014386;28;19951;-79
2022/08/13 04:39:42;;;;;;;;;;;20.50;99.90;;;;;;5015451;28;19955;-76
2022/08/13 04:42:08;;;;;;;;;;;20.40;99.90;;;;;;5005479;28;19925;-79
2022/08/13 04:44:34;;;;;;;;;;;20.40;99.90;;;;;;5014822;28;20052;-76
2022/08/13 04:46:59;;;;;;;;;;;20.40;99.90;;;;;;5017167;28;19905;-78
2022/08/13 04:49:25;;;;;;;;;;;20.50;99.90;;;;;;5014984;28;20284;-78
2022/08/13 04:51:51;;;;;;;;;;;20.50;99.90;;;;;;5014886;28;19940;-75
2022/08/13 04:54:19;;;;;;;;;;;20.40;99.90;;;;;;5013517;28;19912;-76
2022/08/13 04:56:45;;;;;;;;;;;20.20;99.90;;;;;;5014689;28;20356;-76
2022/08/13 04:59:11;;;;;;;;;;;20.10;99.90;;;;;;5014235;28;19916;-79
2022/08/13 05:01:37;;;;;;;;;;;20.00;99.90;;;;;;5014695;28;19913;-79
2022/08/13 05:04:03;;;;;;;;;;;19.90;99.90;;;;;;5014940;28;20381;-76
2022/08/13 05:06:29;;;;;;;;;;;19.90;99.90;;;;;;5016764;28;19905;-76
2022/08/13 05:08:58;;;;;;;;;;;19.80;99.90;;;;;;5014700;28;19912;-78
2022/08/13 05:11:24;;;;;;;;;;;19.80;99.90;;;;;;5014215;28;19913;-78
2022/08/13 05:13:49;;;;;;;;;;;19.80;99.90;;;;;;5014411;28;19975;-79
2022/08/13 05:16:16;;;;;;;;;;;19.80;99.90;;;;;;5014273;28;19925;-76
2022/08/13 05:18:44;;;;;;;;;;;19.70;99.90;;;;;;5013352;28;19913;-75
2022/08/13 05:21:10;;;;;;;;;;;19.60;99.90;;;;;;5015544;28;19920;-76
2022/08/13 05:23:37;;;;;;;;;;;19.60;99.90;;;;;;5014315;28;19905;-76
2022/08/13 05:26:03;;;;;;;;;;;19.70;99.90;;;;;;5012985;28;19988;-78
2022/08/13 05:28:31;;;;;;;;;;;19.70;99.90;;;;;;5014083;28;19905;-75
2022/08/13 05:30:57;;;;;;;;;;;19.80;99.90;;;;;;5013920;28;19906;-75
2022/08/13 05:33:24;;;;;;;;;;;19.80;99.90;;;;;;5014168;28;19912;-78
2022/08/13 05:35:51;;;;;;;;;;;19.90;99.90;;;;;;5016300;28;19928;-78
2022/08/13 05:38:22;;;;;;;;;;;19.90;99.90;;;;;;5013929;28;19913;-78
2022/08/13 05:40:48;;;;;;;;;;;19.90;99.90;;;;;;5013571;28;19959;-78
2022/08/13 05:43:15;;;;;;;;;;;19.90;99.90;;;;;;5005173;28;19906;-75
2022/08/13 05:45:44;;;;;;;;;;;20.00;99.90;;;;;;5012895;28;20288;-75
2022/08/13 05:48:09;;;;;;;;;;;20.00;99.90;;;;;;5015365;28;20430;-76
2022/08/13 05:50:35;;;;;;;;;;;20.00;99.90;;;;;;5012495;28;19905;-78
2022/08/13 05:53:08;;;;;;;;;;;19.90;99.90;;;;;;5013929;28;19921;-79
2022/08/13 05:55:35;;;;;;;;;;;19.90;99.90;;;;;;5013659;28;19960;-79
2022/08/13 05:58:01;;;;;;;;;;;19.90;99.90;;;;;;5013222;28;20334;-75
2022/08/13 06:03:27;;;;;;;;;;;20.00;99.90;;;;;;5014147;28;19952;-79
2022/08/13 06:05:58;;;;;;;;;;;20.00;99.90;;;;;;5013769;28;19909;-78
2022/08/13 06:08:29;;;;;;;;;;;20.10;99.90;;;;;;5012206;28;19909;-78
2022/08/13 06:10:55;;;;;;;;;;;20.10;99.90;;;;;;5013545;28;19905;-75
2022/08/13 06:13:21;;;;;;;;;;;20.10;99.90;;;;;;5012997;28;19905;-79
2022/08/13 06:15:57;;;;;;;;;;;20.20;99.90;;;;;;5013882;28;20327;-79
2022/08/13 06:18:24;;;;;;;;;;;20.30;99.90;;;;;;5012458;28;19959;-79
2022/08/13 06:20:52;;;;;;;;;;;20.40;99.90;;;;;;5014586;28;19937;-76
2022/08/13 06:23:18;;;;;;;;;;;20.40;99.90;;;;;;5013211;28;19909;-75
2022/08/13 06:25:44;;;;;;;;;;;20.50;99.90;;;;;;5013241;28;19905;-78
2022/08/13 06:28:10;;;;;;;;;;;20.60;99.90;;;;;;5012995;28;19913;-78
2022/08/13 06:30:37;;;;;;;;;;;20.70;99.90;;;;;;5010178;28;19906;-78
2022/08/13 06:33:03;;;;;;;;;;;20.70;99.90;;;;;;5013428;28;19942;-78
2022/08/13 06:35:31;;;;;;;;;;;20.80;99.90;;;;;;5015577;28;19951;-78
2022/08/13 06:37:56;;;;;;;;;;;20.90;99.90;;;;;;5013331;28;19910;-76
2022/08/13 06:40:23;;;;;;;;;;;20.90;99.90;;;;;;5013287;28;19920;-75
2022/08/13 06:42:48;;;;;;;;;;;21.10;99.90;;;;;;5003622;28;20000;-75
2022/08/13 06:45:15;;;;;;;;;;;21.00;99.90;;;;;;5013229;28;20003;-75
2022/08/13 06:47:41;;;;;;;;;;;20.90;99.90;;;;;;5014697;28;19913;-75
2022/08/13 06:50:10;;;;;;;;;;;20.90;99.90;;;;;;5013598;28;20292;-75
2022/08/13 06:52:36;;;;;;;;;;;21.20;99.90;;;;;;5013119;28;19948;-78
2022/08/13 06:55:02;;;;;;;;;;;21.30;99.90;;;;;;5013144;28;19905;-78
2022/08/13 06:57:30;;;;;;;;;;;21.50;99.90;;;;;;5012530;28;20356;-78
2022/08/13 06:59:57;;;;;;;;;;;21.60;99.90;;;;;;5015516;28;19912;-76
2022/08/13 07:02:24;;;;;;;;;;;21.60;99.90;;;;;;5017390;28;19905;-78
2022/08/13 07:04:49;;;;;;;;;;;21.60;99.90;;;;;;5017098;28;19929;-78
2022/08/13 07:07:17;;;;;;;;;;;21.80;99.90;;;;;;5016925;28;19905;-78
2022/08/13 07:09:44;;;;;;;;;;;21.90;99.90;;;;;;5016877;28;19905;-78
2022/08/13 07:12:12;;;;;;;;;;;21.80;99.90;;;;;;5016151;28;20423;-78
2022/08/13 07:14:40;;;;;;;;;;;21.60;99.90;;;;;;5015784;28;19951;-77
2022/08/13 07:17:06;;;;;;;;;;;21.60;99.90;;;;;;5016799;28;20326;-78
2022/08/13 07:19:33;;;;;;;;;;;21.50;99.90;;;;;;5016217;28;19914;-78
2022/08/13 07:21:59;;;;;;;;;;;21.20;99.90;;;;;;5016639;28;20280;-75
2022/08/13 07:24:26;;;;;;;;;;;21.10;99.90;;;;;;5016339;28;19905;-75
2022/08/13 07:26:52;;;;;;;;;;;21.00;99.90;;;;;;5016561;28;20296;-78
2022/08/13 07:29:19;;;;;;;;;;;20.80;99.90;;;;;;5015091;28;19916;-77
2022/08/13 07:31:45;;;;;;;;;;;20.80;99.90;;;;;;5016325;28;19987;-76
2022/08/13 07:34:10;;;;;;;;;;;20.90;99.90;;;;;;5016105;28;19948;-77
2022/08/13 07:36:37;;;;;;;;;;;20.90;99.90;;;;;;5018800;28;19928;-78
2022/08/13 07:39:07;;;;;;;;;;;20.80;99.90;;;;;;5016275;28;19913;-77
2022/08/13 07:41:40;;;;;;;;;;;20.70;99.90;;;;;;5009774;28;19909;-75
2022/08/13 07:44:09;;;;;;;;;;;20.70;99.90;;;;;;5014858;28;19905;-77
2022/08/13 07:46:40;;;;;;;;;;;20.70;99.90;;;;;;5016724;28;19988;-78
2022/08/13 07:49:07;;;;;;;;;;;20.80;99.90;;;;;;5016438;28;19933;-75
2022/08/13 07:51:33;;;;;;;;;;;20.80;99.90;;;;;;5016009;28;19972;-77
2022/08/13 07:54:00;;;;;;;;;;;20.80;99.90;;;;;;5015896;28;19952;-75
2022/08/13 07:56:28;;;;;;;;;;;20.70;99.90;;;;;;5015832;28;19959;-75
2022/08/13 07:59:00;;;;;;;;;;;20.80;99.90;;;;;;5015593;28;19905;-78
2022/08/13 08:01:27;;;;;;;;;;;20.80;99.90;;;;;;5015945;28;19944;-75
2022/08/13 08:03:54;;;;;;;;;;;20.60;99.90;;;;;;5015762;28;19909;-77
2022/08/13 08:06:23;;;;;;;;;;;20.70;99.90;;;;;;5015615;28;19906;-75
2022/08/13 08:08:53;;;;;;;;;;;20.70;99.90;;;;;;5012172;28;19919;-78
2022/08/13 08:14:04;;;;;;;;;;;20.80;99.90;;;;;;5015540;28;19987;-77
2022/08/13 08:16:31;;;;;;;;;;;20.90;99.90;;;;;;5015493;28;20368;-78
2022/08/13 08:18:59;;;;;;;;;;;21.00;99.90;;;;;;5015453;28;20005;-75
2022/08/13 08:21:26;;;;;;;;;;;21.00;99.90;;;;;;5014126;28;20253;-75
2022/08/13 08:23:57;;;;;;;;;;;21.00;99.90;;;;;;5014834;28;19916;-77
2022/08/13 08:26:29;;;;;;;;;;;21.00;99.90;;;;;;5015111;28;20328;-77
2022/08/13 08:28:56;;;;;;;;;;;21.10;99.90;;;;;;5014895;28;19916;-75
2022/08/13 08:31:22;;;;;;;;;;;21.20;99.90;;;;;;5015208;28;19905;-75
2022/08/13 08:33:47;;;;;;;;;;;21.20;99.90;;;;;;5015209;28;19906;-75
2022/08/13 08:36:13;;;;;;;;;;;21.30;99.90;;;;;;5017432;28;19955;-75
2022/08/13 08:44:16;;;;;;;;;;;21.40;99.90;;;;;;5012350;28;19913;-74
2022/08/13 08:46:41;;;;;;;;;;;21.40;99.90;;;;;;5016370;28;19905;-77
2022/08/13 08:49:07;;;;;;;;;;;21.50;99.90;;;;;;5012149;28;20377;-77
2022/08/13 08:51:33;;;;;;;;;;;21.60;99.90;;;;;;5014747;28;19913;-77
2022/08/13 08:54:00;;;;;;;;;;;21.80;99.90;;;;;;5014443;28;19905;-78
2022/08/13 08:56:25;;;;;;;;;;;21.80;99.90;;;;;;5014719;28;20262;-77
2022/08/13 08:58:54;;;;;;;;;;;21.90;99.90;;;;;;5014375;28;20043;-75
2022/08/13 09:01:21;;;;;;;;;;;22.20;99.90;;;;;;5014945;28;20434;-78
2022/08/13 09:03:46;;;;;;;;;;;22.70;99.90;;;;;;5014692;28;20329;-78
2022/08/13 09:06:12;;;;;;;;;;;23.20;99.90;;;;;;5014776;28;19957;-78
2022/08/13 09:08:38;;;;;;;;;;;24.40;99.90;;;;;;5010297;28;19920;-78
2022/08/13 09:11:04;;;;;;;;;;;25.10;99.90;;;;;;5014569;28;19913;-78
2022/08/13 09:13:30;;;;;;;;;;;25.60;99.90;;;;;;5014113;28;19909;-75
2022/08/13 09:15:57;;;;;;;;;;;25.50;99.90;;;;;;5014747;28;20285;-78
2022/08/13 09:18:23;;;;;;;;;;;26.40;99.90;;;;;;5013940;28;19927;-78
2022/08/13 09:20:50;;;;;;;;;;;27.90;99.90;;;;;;5016250;28;20035;-78
2022/08/13 09:23:16;;;;;;;;;;;29.10;99.90;;;;;;5013316;28;19912;-76
2022/08/13 09:25:48;;;;;;;;;;;30.10;99.90;;;;;;5014565;28;20343;-79
2022/08/13 09:28:17;;;;;;;;;;;30.50;99.90;;;;;;5013718;28;19913;-78
2022/08/13 09:30:45;;;;;;;;;;;28.40;99.90;;;;;;5014126;28;19988;-78
2022/08/13 09:33:12;;;;;;;;;;;27.60;99.90;;;;;;5014030;28;20000;-75
2022/08/13 09:35:39;;;;;;;;;;;28.50;99.90;;;;;;5016396;28;19912;-76
2022/08/13 09:38:08;;;;;;;;;;;29.60;99.90;;;;;;5013058;28;19940;-76
2022/08/13 09:40:37;;;;;;;;;;;30.60;99.00;;;;;;5013996;28;20344;-76
2022/08/13 09:43:07;;;;;;;;;;;31.30;97.90;;;;;;5014063;28;19941;-78
2022/08/13 09:45:33;;;;;;;;;;;31.00;97.80;;;;;;5014008;28;19912;-78
2022/08/13 09:47:59;;;;;;;;;;;31.50;97.10;;;;;;5017274;28;20372;-76
2022/08/13 09:50:25;;;;;;;;;;;31.50;96.20;;;;;;5013941;28;20225;-76
2022/08/13 09:52:56;;;;;;;;;;;31.70;96.20;;;;;;5013907;28;19924;-76
2022/08/13 09:55:24;;;;;;;;;;;30.50;97.30;;;;;;5013781;28;19909;-77
2022/08/13 09:57:49;;;;;;;;;;;29.70;98.70;;;;;;5013495;28;19912;-79
2022/08/13 10:00:20;;;;;;;;;;;29.60;98.90;;;;;;5013759;28;19905;-79
2022/08/13 10:02:50;;;;;;;;;;;30.00;98.60;;;;;;5013843;28;19905;-76
2022/08/13 10:05:17;;;;;;;;;;;29.60;98.40;;;;;;5013593;28;20277;-76
2022/08/13 10:07:42;;;;;;;;;;;30.30;97.40;;;;;;5013682;28;19973;-79
2022/08/13 10:10:08;;;;;;;;;;;29.90;97.50;;;;;;5013568;28;19920;-79
2022/08/13 10:12:33;;;;;;;;;;;30.70;97.10;;;;;;5013157;28;19944;-79
2022/08/13 10:14:59;;;;;;;;;;;31.30;95.80;;;;;;5013493;28;19931;-76
2022/08/13 10:17:25;;;;;;;;;;;31.30;95.80;;;;;;5013413;28;20427;-76
2022/08/13 10:19:51;;;;;;;;;;;30.70;96.00;;;;;;5013960;28;19910;-76
2022/08/13 10:22:16;;;;;;;;;;;31.20;95.90;;;;;;5013281;28;19910;-78
2022/08/13 10:24:42;;;;;;;;;;;31.20;95.80;;;;;;5013164;28;19906;-79
2022/08/13 10:27:07;;;;;;;;;;;30.80;95.70;;;;;;5013260;28;19909;-79
2022/08/13 10:29:33;;;;;;;;;;;30.30;95.70;;;;;;5012941;28;19970;-77
2022/08/13 10:31:59;;;;;;;;;;;30.90;96.30;;;;;;5013637;28;19905;-78
2022/08/13 10:34:24;;;;;;;;;;;30.60;95.80;;;;;;5016329;28;20308;-79
2022/08/13 10:36:50;;;;;;;;;;;31.00;95.70;;;;;;5018275;28;19932;-80
2022/08/13 10:39:15;;;;;;;;;;;31.40;95.30;;;;;;5016636;28;19955;-79
2022/08/13 10:41:44;;;;;;;;;;;31.10;95.70;;;;;;5009717;28;20039;-77
2022/08/13 10:44:11;;;;;;;;;;;31.00;95.50;;;;;;5015865;28;20324;-79
2022/08/13 10:46:36;;;;;;;;;;;31.00;95.40;;;;;;5017693;28;19913;-80
2022/08/13 10:49:02;;;;;;;;;;;30.90;94.90;;;;;;5018332;28;19917;-79
2022/08/13 10:51:28;;;;;;;;;;;30.60;95.60;;;;;;5017222;28;19905;-78
2022/08/13 10:53:59;;;;;;;;;;;30.50;95.60;;;;;;5016974;28;19917;-78
2022/08/13 10:56:29;;;;;;;;;;;30.70;95.60;;;;;;5017006;28;19905;-78
2022/08/13 10:58:56;;;;;;;;;;;30.60;95.60;;;;;;5016772;28;20431;-79
2022/08/13 11:01:24;;;;;;;;;;;30.40;95.70;;;;;;5016993;28;19913;-79
2022/08/13 11:04:09;;;;;;;;;;;30.50;95.80;;;;;;5017036;28;20000;-79
2022/08/13 11:06:36;;;;;;;;;;;30.50;95.40;;;;;;5015592;28;19910;-79
2022/08/13 11:09:04;;;;;;;;;;;30.10;96.10;;;;;;5016803;28;20009;-77
2022/08/13 11:11:29;;;;;;;;;;;30.20;96.40;;;;;;5016436;28;19913;-78
2022/08/13 11:13:55;;;;;;;;;;;30.30;96.00;;;;;;5016709;28;19905;-79
2022/08/13 11:18:58;;;;;;;;;;;29.40;97.20;;;;;;5016813;28;19916;-79
2022/08/13 11:21:24;;;;;;;;;;;29.30;97.50;;;;;;5018205;28;19905;-79
2022/08/13 11:23:50;;;;;;;;;;;29.40;97.10;;;;;;5016388;28;20373;-79
2022/08/13 11:26:16;;;;;;;;;;;29.00;97.50;;;;;;5016590;28;20276;-77
2022/08/13 11:28:41;;;;;;;;;;;29.10;97.90;;;;;;5016197;28;19909;-79
2022/08/13 11:31:07;;;;;;;;;;;29.10;97.70;;;;;;5016274;28;20364;-79
2022/08/13 11:33:32;;;;;;;;;;;28.70;98.30;;;;;;5016560;28;19940;-78
2022/08/13 11:35:58;;;;;;;;;;;28.50;98.60;;;;;;5015872;28;19910;-78
2022/08/13 11:38:23;;;;;;;;;;;28.50;98.90;;;;;;5015771;28;20390;-79
2022/08/13 11:40:50;;;;;;;;;;;28.60;98.80;;;;;;5015897;28;19913;-79
2022/08/13 11:43:15;;;;;;;;;;;28.70;98.70;;;;;;5007262;28;19912;-78
2022/08/13 11:45:41;;;;;;;;;;;28.30;99.30;;;;;;5015318;28;20287;-79
2022/08/13 11:48:07;;;;;;;;;;;28.10;99.60;;;;;;5018707;28;20439;-78
2022/08/13 11:50:32;;;;;;;;;;;28.10;99.70;;;;;;5016146;28;19959;-78
2022/08/13 11:52:58;;;;;;;;;;;27.90;99.90;;;;;;5016241;28;20292;-79
2022/08/13 11:55:23;;;;;;;;;;;28.40;99.80;;;;;;5016006;28;20332;-78
2022/08/13 11:57:57;;;;;;;;;;;28.20;99.60;;;;;;5015382;28;19913;-79
2022/08/13 12:00:23;;;;;;;;;;;28.10;99.90;;;;;;5015668;28;19912;-78
2022/08/13 12:02:48;;;;;;;;;;;27.50;99.90;;;;;;5016043;28;19909;-77
2022/08/13 12:05:14;;;;;;;;;;;27.20;99.90;;;;;;5015707;28;20011;-77
2022/08/13 12:07:40;;;;;;;;;;;27.20;99.90;;;;;;5015838;28;20284;-79
2022/08/13 12:10:06;;;;;;;;;;;27.20;99.90;;;;;;5014120;28;19913;-79
2022/08/13 12:12:31;;;;;;;;;;;27.20;99.90;;;;;;5015225;28;19920;-78
2022/08/13 12:14:57;;;;;;;;;;;27.10;99.90;;;;;;5015732;28;19912;-78
2022/08/13 12:17:23;;;;;;;;;;;27.30;99.90;;;;;;5015687;28;19905;-79
2022/08/13 12:19:48;;;;;;;;;;;27.80;99.90;;;;;;5014995;28;19907;-79
2022/08/13 12:22:14;;;;;;;;;;;27.50;99.90;;;;;;5015444;28;19949;-79
2022/08/13 12:24:39;;;;;;;;;;;27.50;99.90;;;;;;5015453;28;19911;-78
2022/08/13 12:27:05;;;;;;;;;;;27.90;99.90;;;;;;5015144;28;19905;-79
2022/08/13 12:29:31;;;;;;;;;;;28.00;99.90;;;;;;5013740;28;20292;-79
2022/08/13 12:31:57;;;;;;;;;;;28.00;99.90;;;;;;5015461;28;19956;-80
2022/08/13 12:34:22;;;;;;;;;;;27.60;99.90;;;;;;5015034;28;20399;-79
2022/08/13 12:36:48;;;;;;;;;;;27.70;99.90;;;;;;5017605;28;19913;-79
2022/08/13 12:39:13;;;;;;;;;;;27.60;99.90;;;;;;5014584;28;20289;-79
2022/08/13 12:41:39;;;;;;;;;;;27.60;99.90;;;;;;5007856;28;20340;-77
2022/08/13 12:44:04;;;;;;;;;;;27.40;99.90;;;;;;5013078;28;19905;-77
2022/08/13 12:46:30;;;;;;;;;;;27.30;99.90;;;;;;5015099;28;19941;-78
2022/08/13 12:48:55;;;;;;;;;;;27.70;99.90;;;;;;5016583;28;19909;-80
2022/08/13 12:51:21;;;;;;;;;;;28.00;99.90;;;;;;5015047;28;19905;-78
2022/08/13 12:53:46;;;;;;;;;;;28.30;99.90;;;;;;5014929;28;20257;-78
2022/08/13 12:56:12;;;;;;;;;;;28.00;99.90;;;;;;5012844;28;19906;-79
2022/08/13 12:58:37;;;;;;;;;;;27.20;99.90;;;;;;5014117;28;19912;-79
2022/08/13 13:01:03;;;;;;;;;;;27.10;99.90;;;;;;5014923;28;19940;-79
2022/08/13 13:03:29;;;;;;;;;;;27.40;99.90;;;;;;5014746;28;19905;-79
2022/08/13 13:05:55;;;;;;;;;;;27.90;99.90;;;;;;5014773;28;20279;-79
2022/08/13 13:08:28;;;;;;;;;;;28.00;99.90;;;;;;5014521;28;19910;-79
2022/08/13 13:10:54;;;;;;;;;;;27.50;99.90;;;;;;5014369;28;20418;-79
2022/08/13 13:13:21;;;;;;;;;;;27.10;99.90;;;;;;5013943;28;19912;-80
2022/08/13 13:15:47;;;;;;;;;;;27.50;99.90;;;;;;5013861;28;19963;-79
2022/08/13 13:18:14;;;;;;;;;;;27.60;99.90;;;;;;5014195;28;19951;-77
2022/08/13 13:20:43;;;;;;;;;;;27.30;99.90;;;;;;5015546;28;19905;-78
2022/08/13 13:23:10;;;;;;;;;;;27.00;99.90;;;;;;5014286;28;20364;-79
2022/08/13 13:25:36;;;;;;;;;;;27.00;99.90;;;;;;5014560;28;19906;-79
2022/08/13 13:28:06;;;;;;;;;;;27.20;99.90;;;;;;5013952;28;19963;-78
2022/08/13 13:30:32;;;;;;;;;;;27.30;99.90;;;;;;5014456;28;19953;-79
2022/08/13 13:32:58;;;;;;;;;;;27.00;99.90;;;;;;5014257;28;19906;-77
2022/08/13 13:35:23;;;;;;;;;;;26.70;99.90;;;;;;5016450;28;19913;-79
2022/08/13 13:37:49;;;;;;;;;;;27.00;99.90;;;;;;5014052;28;20256;-77
2022/08/13 13:40:15;;;;;;;;;;;26.90;99.90;;;;;;5013388;28;19913;-79
2022/08/13 13:42:43;;;;;;;;;;;26.40;99.90;;;;;;5003822;28;19905;-78
2022/08/13 13:45:09;;;;;;;;;;;26.40;99.90;;;;;;5014151;28;19909;-78
2022/08/13 13:47:34;;;;;;;;;;;26.60;99.90;;;;;;5014772;28;19906;-78
2022/08/13 13:50:00;;;;;;;;;;;27.10;99.90;;;;;;5014084;28;20368;-78
2022/08/13 13:52:25;;;;;;;;;;;27.10;99.90;;;;;;5013700;28;20000;-79
2022/08/13 13:54:53;;;;;;;;;;;27.00;99.90;;;;;;5013944;28;19979;-79
2022/08/13 13:57:18;;;;;;;;;;;27.40;99.90;;;;;;5012992;28;20001;-77
2022/08/13 13:59:44;;;;;;;;;;;27.40;99.90;;;;;;5012697;28;19945;-78
2022/08/13 14:02:09;;;;;;;;;;;27.00;99.90;;;;;;5013841;28;19960;-78
2022/08/13 14:04:35;;;;;;;;;;;27.00;99.90;;;;;;5013861;28;19905;-78
2022/08/13 14:07:04;;;;;;;;;;;26.80;99.90;;;;;;5013819;28;19905;-78
2022/08/13 14:09:30;;;;;;;;;;;26.90;99.90;;;;;;5013007;28;19916;-80
2022/08/13 14:11:56;;;;;;;;;;;26.80;99.90;;;;;;5013283;28;19909;-78
2022/08/13 14:14:22;;;;;;;;;;;26.80;99.90;;;;;;5013625;28;20265;-81
2022/08/13 14:16:48;;;;;;;;;;;26.70;99.90;;;;;;5013609;28;19905;-78
2022/08/13 14:19:15;;;;;;;;;;;26.70;99.90;;;;;;5014882;28;20284;-77
2022/08/13 14:21:42;;;;;;;;;;;26.40;99.90;;;;;;5013510;28;19906;-79
2022/08/13 14:24:07;;;;;;;;;;;26.10;99.90;;;;;;5013383;28;19912;-78
2022/08/13 14:26:34;;;;;;;;;;;26.10;99.90;;;;;;5013456;28;19988;-78
2022/08/13 14:29:01;;;;;;;;;;;26.20;99.90;;;;;;5013077;28;19916;-77
2022/08/13 14:31:27;;;;;;;;;;;26.70;99.90;;;;;;5013393;28;19956;-79
2022/08/13 14:33:54;;;;;;;;;;;27.10;99.90;;;;;;5013453;28;19909;-79
2022/08/13 14:36:24;;;;;;;;;;;27.30;99.90;;;;;;5015395;28;19906;-78
2022/08/13 14:38:51;;;;;;;;;;;27.60;99.90;;;;;;5013670;28;19956;-78